Terminal Aerodrome Forecast
Issued by NWS Wilmington, OH

Current Version | Previous Version | Text Only | Print | Product List | Glossary Off
Versions: 1 2 3 4 5 6 7 8 9 10 11 12 13 14 15 16 17 18 19 20 21 22 23 24 25 26 27 28

000
FTUS41 KILN 151100 RRA
TAFDAY
TAF
KDAY 151155Z 1512/1612 17006KT 4SM BR BKN050
     FM151300 16007KT 5SM BR OVC025
     FM151600 15009KT 6SM HZ OVC025
     FM152200 15010KT P6SM SCT025 OVC250
     FM160000 15009KT P6SM -RA SCT025 OVC080
      TEMPO 1601/1603 BKN025
     FM160300 15010KT P6SM VCSH OVC020
     FM160700 15011KT 5SM BR VCSH OVC012=

USA.gov is the U.S. government's official web portal to all federal, state and local government web resources and services.